createdAt,value
2022-11-27T00:00:24.519Z,94.15
2022-11-27T00:01:24.514Z,94.25
2022-11-27T00:02:24.553Z,94.09
2022-11-27T00:03:24.644Z,94.19
2022-11-27T00:04:24.489Z,94.35
2022-11-27T00:05:24.491Z,94.09
2022-11-27T00:06:24.467Z,94.25
2022-11-27T00:07:24.478Z,94.09
2022-11-27T00:08:24.437Z,94.25
2022-11-27T00:09:24.428Z,94.15
2022-11-27T00:10:24.429Z,94.40
2022-11-27T00:11:24.419Z,94.25
2022-11-27T00:12:24.385Z,94.15
2022-11-27T00:13:31.490Z,94.29
2022-11-27T00:14:24.357Z,94.35
2022-11-27T00:15:24.361Z,94.56
2022-11-27T00:16:24.439Z,94.35
2022-11-27T00:17:24.326Z,94.35
2022-11-27T00:18:24.330Z,94.56
2022-11-27T00:19:24.316Z,94.67
2022-11-27T00:20:29.511Z,94.40
2022-11-27T00:21:25.316Z,94.67
2022-11-27T00:22:24.284Z,94.46
2022-11-27T00:23:24.254Z,94.60
2022-11-27T00:24:24.247Z,94.15
2022-11-27T00:25:24.256Z,94.15
2022-11-27T00:26:24.225Z,94.50
2022-11-27T00:27:24.220Z,94.56
2022-11-27T00:28:24.208Z,94.25
2022-11-27T00:29:24.196Z,94.09
2022-11-27T00:30:24.181Z,94.50
2022-11-27T00:31:24.283Z,94.50
2022-11-27T00:32:24.159Z,94.60
2022-11-27T00:33:24.143Z,94.40
2022-11-27T00:34:24.133Z,94.50
2022-11-27T00:35:24.120Z,94.50
2022-11-27T00:36:24.123Z,94.60
2022-11-27T00:37:24.118Z,94.71
2022-11-27T00:38:24.100Z,94.60
2022-11-27T00:39:24.083Z,94.71
2022-11-27T00:40:24.075Z,94.40
2022-11-27T00:41:24.064Z,94.60
2022-11-27T00:42:24.063Z,94.50
2022-11-27T00:43:24.033Z,94.29
2022-11-27T00:44:24.037Z,94.60
2022-11-27T00:45:24.020Z,94.09
2022-11-27T00:46:28.438Z,94.19
2022-11-27T00:47:25.007Z,94.40
2022-11-27T00:48:23.981Z,94.29
2022-11-27T00:49:23.968Z,94.40
2022-11-27T00:50:23.957Z,94.29
2022-11-27T00:51:23.958Z,94.60
2022-11-27T00:52:23.948Z,94.60
2022-11-27T00:53:23.937Z,94.50
2022-11-27T00:54:23.915Z,94.60
2022-11-27T00:55:23.911Z,93.98
2022-11-27T00:56:23.894Z,93.98
2022-11-27T00:57:23.878Z,94.09
2022-11-27T00:58:23.871Z,93.57
2022-11-27T00:59:23.861Z,93.78
2022-11-27T01:00:23.841Z,93.78
2022-11-27T01:01:23.896Z,93.88
2022-11-27T01:02:23.888Z,93.78
2022-11-27T01:03:23.818Z,93.78
2022-11-27T01:04:23.819Z,93.57
2022-11-27T01:05:23.787Z,93.78
2022-11-27T01:06:23.779Z,93.88
2022-11-27T01:07:23.818Z,93.26
2022-11-27T01:08:23.760Z,93.78
2022-11-27T01:09:23.765Z,93.57
2022-11-27T01:10:23.739Z,93.47
2022-11-27T01:11:23.725Z,93.37
2022-11-27T01:12:23.707Z,93.57
2022-11-27T01:13:23.694Z,93.57
2022-11-27T01:14:23.709Z,93.47
2022-11-27T01:15:23.679Z,93.47
2022-11-27T01:16:23.733Z,93.57
2022-11-27T01:17:23.665Z,93.57
2022-11-27T01:18:23.643Z,93.57
2022-11-27T01:19:23.641Z,93.57
2022-11-27T01:20:23.627Z,93.26
2022-11-27T01:21:23.611Z,93.26
2022-11-27T01:22:23.623Z,93.16
2022-11-27T01:23:23.586Z,93.57
2022-11-27T01:24:23.581Z,93.26
2022-11-27T01:25:26.923Z,93.26
2022-11-27T01:26:23.560Z,93.26
2022-11-27T01:27:23.536Z,93.47
2022-11-27T01:28:23.530Z,93.47
2022-11-27T01:29:23.528Z,93.57
2022-11-27T01:30:23.518Z,93.41
2022-11-27T01:31:23.569Z,93.57
2022-11-27T01:32:23.489Z,93.57
2022-11-27T01:33:23.470Z,93.51
2022-11-27T01:34:23.460Z,93.30
2022-11-27T01:35:23.461Z,93.47
2022-11-27T01:36:23.445Z,93.37
2022-11-27T01:37:23.432Z,93.37
2022-11-27T01:38:23.415Z,93.57
2022-11-27T01:39:23.401Z,93.47
2022-11-27T01:40:23.417Z,93.37
2022-11-27T01:41:23.412Z,93.47
2022-11-27T01:42:23.382Z,93.57
2022-11-27T01:43:23.372Z,93.47
2022-11-27T01:44:23.356Z,93.37
2022-11-27T01:45:23.347Z,93.47
2022-11-27T01:46:23.408Z,93.26
2022-11-27T01:47:23.325Z,92.64
2022-11-27T01:48:23.300Z,93.51
2022-11-27T01:49:23.287Z,93.26
2022-11-27T01:50:23.278Z,93.47
2022-11-27T01:51:23.263Z,93.47
2022-11-27T01:52:23.302Z,93.62
2022-11-27T01:53:23.242Z,93.51
2022-11-27T01:54:23.236Z,93.51
2022-11-27T01:55:23.220Z,93.37
2022-11-27T01:56:23.217Z,93.41
2022-11-27T01:57:23.217Z,93.30
2022-11-27T01:58:23.204Z,93.51
2022-11-27T01:59:23.182Z,93.20
2022-11-27T02:00:23.186Z,93.41
2022-11-27T02:01:23.200Z,93.62
2022-11-27T02:02:23.201Z,93.62
2022-11-27T02:03:23.221Z,93.62
2022-11-27T02:04:23.135Z,93.51
2022-11-27T02:05:23.106Z,93.93
2022-11-27T02:06:23.097Z,93.72
2022-11-27T02:07:23.242Z,93.51
2022-11-27T02:08:23.086Z,93.72
2022-11-27T02:09:23.080Z,93.30
2022-11-27T02:10:23.059Z,93.51
2022-11-27T02:11:23.054Z,93.62
2022-11-27T02:12:23.035Z,93.51
2022-11-27T02:13:23.035Z,93.62
2022-11-27T02:14:23.009Z,93.51
2022-11-27T02:15:23.009Z,93.51
2022-11-27T02:16:23.101Z,93.51
2022-11-27T02:17:22.976Z,93.87
2022-11-27T02:18:22.962Z,93.62
2022-11-27T02:19:22.958Z,93.51
2022-11-27T02:20:22.960Z,93.62
2022-11-27T02:21:22.922Z,93.82
2022-11-27T02:22:22.917Z,93.30
2022-11-27T02:23:22.916Z,93.51
2022-11-27T02:24:22.902Z,93.30
2022-11-27T02:25:28.137Z,93.55
2022-11-27T02:26:23.893Z,93.35
2022-11-27T02:27:22.863Z,93.66
2022-11-27T02:28:22.864Z,93.45
2022-11-27T02:29:22.852Z,93.45
2022-11-27T02:30:22.842Z,93.55
2022-11-27T02:31:22.857Z,93.35
2022-11-27T02:32:22.825Z,93.35
2022-11-27T02:33:22.797Z,93.55
2022-11-27T02:34:22.782Z,93.55
2022-11-27T02:35:22.774Z,93.35
2022-11-27T02:36:22.782Z,93.55
2022-11-27T02:37:22.767Z,93.66
2022-11-27T02:38:22.739Z,93.35
2022-11-27T02:39:22.725Z,93.55
2022-11-27T02:40:22.716Z,92.63
2022-11-27T02:41:22.711Z,93.87
2022-11-27T02:42:22.808Z,93.87
2022-11-27T02:43:22.689Z,92.83
2022-11-27T02:44:22.671Z,93.76
2022-11-27T02:45:22.661Z,93.04
2022-11-27T02:46:22.680Z,92.93
2022-11-27T02:47:22.646Z,92.72
2022-11-27T02:48:22.633Z,92.72
2022-11-27T02:49:22.635Z,92.93
2022-11-27T02:50:22.604Z,92.77
2022-11-27T02:51:22.612Z,92.83
2022-11-27T02:52:22.583Z,92.93
2022-11-27T02:53:22.574Z,92.97
2022-11-27T02:54:22.585Z,92.72
2022-11-27T02:55:22.553Z,92.72
2022-11-27T02:56:22.545Z,92.93
2022-11-27T02:57:22.530Z,93.04
2022-11-27T02:58:22.634Z,92.83
2022-11-27T02:59:22.507Z,92.83
2022-11-27T03:00:22.490Z,93.24
2022-11-27T03:01:22.538Z,93.18
2022-11-27T03:02:22.559Z,93.18
2022-11-27T03:03:22.466Z,92.87
2022-11-27T03:04:22.453Z,92.97
2022-11-27T03:05:22.452Z,92.77
2022-11-27T03:06:22.429Z,92.97
2022-11-27T03:07:22.476Z,92.97
2022-11-27T03:08:22.419Z,92.77
2022-11-27T03:09:22.396Z,92.97
2022-11-27T03:10:22.381Z,92.97
2022-11-27T03:11:22.364Z,92.97
2022-11-27T03:12:22.381Z,93.18
2022-11-27T03:13:22.349Z,93.08
2022-11-27T03:14:22.446Z,93.18
2022-11-27T03:15:22.321Z,92.87
2022-11-27T03:16:22.348Z,92.77
2022-11-27T03:17:22.320Z,92.87
2022-11-27T03:18:22.312Z,92.97
2022-11-27T03:19:22.275Z,93.18
2022-11-27T03:20:22.282Z,93.18
2022-11-27T03:21:22.253Z,92.77
2022-11-27T03:22:22.243Z,92.67
2022-11-27T03:23:22.252Z,92.97
2022-11-27T03:24:22.238Z,93.18
2022-11-27T03:25:22.218Z,93.18
2022-11-27T03:26:22.199Z,93.23
2022-11-27T03:27:22.196Z,92.71
2022-11-27T03:28:22.192Z,92.97
2022-11-27T03:29:22.171Z,93.02
2022-11-27T03:30:22.284Z,92.87
2022-11-27T03:31:22.234Z,93.08
2022-11-27T03:32:22.145Z,92.71
2022-11-27T03:33:22.125Z,93.29
2022-11-27T03:34:22.115Z,93.29
2022-11-27T03:35:22.113Z,91.99
2022-11-27T03:36:22.099Z,92.40
2022-11-27T03:37:22.075Z,92.50
2022-11-27T03:38:22.081Z,93.23
2022-11-27T03:39:22.058Z,92.91
2022-11-27T03:40:22.050Z,92.57
2022-11-27T03:41:22.040Z,92.77
2022-11-27T03:42:22.043Z,93.18
2022-11-27T03:43:22.018Z,92.36
2022-11-27T03:44:22.000Z,92.71
2022-11-27T03:45:21.995Z,92.71
2022-11-27T03:46:22.156Z,92.81
2022-11-27T03:47:22.011Z,92.71
2022-11-27T03:48:21.977Z,92.40
2022-11-27T03:49:21.943Z,92.61
2022-11-27T03:50:21.934Z,92.50
2022-11-27T03:51:21.920Z,92.61
2022-11-27T03:52:21.914Z,92.40
2022-11-27T03:53:21.922Z,92.71
2022-11-27T03:54:21.899Z,92.81
2022-11-27T03:55:21.882Z,92.91
2022-11-27T03:56:21.875Z,92.91
2022-11-27T03:57:21.867Z,92.96
2022-11-27T03:58:21.855Z,92.91
2022-11-27T03:59:21.838Z,92.65
2022-11-27T04:00:21.825Z,92.71
2022-11-27T04:01:21.942Z,92.91
2022-11-27T04:02:22.004Z,92.50
2022-11-27T04:03:21.792Z,92.50
2022-11-27T04:04:21.871Z,92.40
2022-11-27T04:05:21.762Z,91.99
2022-11-27T04:06:21.753Z,91.88
2022-11-27T04:07:21.835Z,92.09
2022-11-27T04:08:21.730Z,91.88
2022-11-27T04:09:21.730Z,91.57
2022-11-27T04:10:21.714Z,91.67
2022-11-27T04:11:21.709Z,91.57
2022-11-27T04:12:21.704Z,91.36
2022-11-27T04:13:21.687Z,91.30
2022-11-27T04:14:21.672Z,91.57
2022-11-27T04:15:21.661Z,91.26
2022-11-27T04:16:21.785Z,92.09
2022-11-27T04:17:21.628Z,91.88
2022-11-27T04:18:21.735Z,91.26
2022-11-27T04:19:21.608Z,91.99
2022-11-27T04:20:21.615Z,91.47
2022-11-27T04:21:21.587Z,91.47
2022-11-27T04:22:21.573Z,91.78
2022-11-27T04:23:21.570Z,91.67
2022-11-27T04:24:21.563Z,91.67
2022-11-27T04:25:21.540Z,91.78
2022-11-27T04:26:21.532Z,91.36
2022-11-27T04:27:21.517Z,91.05
2022-11-27T04:28:21.509Z,91.47
2022-11-27T04:29:21.513Z,91.26
2022-11-27T04:30:21.500Z,91.67
2022-11-27T04:31:21.541Z,91.05
2022-11-27T04:32:21.461Z,91.36
2022-11-27T04:33:21.446Z,91.16
2022-11-27T04:34:21.550Z,91.05
2022-11-27T04:35:21.466Z,91.16
2022-11-27T04:36:21.417Z,91.78
2022-11-27T04:37:21.403Z,91.67
2022-11-27T04:38:21.397Z,91.20
2022-11-27T04:39:21.385Z,91.16
2022-11-27T04:40:21.373Z,91.16
2022-11-27T04:41:21.374Z,90.95
2022-11-27T04:42:21.359Z,90.89
2022-11-27T04:43:21.347Z,91.41
2022-11-27T04:44:21.330Z,91.41
2022-11-27T04:45:21.336Z,91.41
2022-11-27T04:46:21.479Z,91.61
2022-11-27T04:47:21.293Z,91.61
2022-11-27T04:48:21.285Z,91.82
2022-11-27T04:49:21.281Z,91.72
2022-11-27T04:50:21.382Z,91.82
2022-11-27T04:51:21.263Z,91.51
2022-11-27T04:52:21.250Z,91.30
2022-11-27T04:53:21.231Z,91.41
2022-11-27T04:54:21.222Z,91.30
2022-11-27T04:55:21.207Z,92.03
2022-11-27T04:56:21.205Z,91.30
2022-11-27T04:57:21.191Z,91.41
2022-11-27T04:58:21.171Z,91.61
2022-11-27T04:59:21.163Z,91.93
2022-11-27T05:00:21.152Z,91.51
2022-11-27T05:01:21.208Z,91.61
2022-11-27T05:02:21.130Z,91.41
2022-11-27T05:03:21.203Z,91.72
2022-11-27T05:04:21.117Z,91.82
2022-11-27T05:05:21.093Z,91.72
2022-11-27T05:06:21.267Z,91.61
2022-11-27T05:07:21.123Z,91.20
2022-11-27T05:08:21.076Z,91.41
2022-11-27T05:09:21.047Z,91.41
2022-11-27T05:10:21.030Z,91.51
2022-11-27T05:11:21.023Z,91.30
2022-11-27T05:12:21.016Z,91.51
2022-11-27T05:13:21.010Z,91.93
2022-11-27T05:14:20.997Z,91.93
2022-11-27T05:15:20.982Z,91.51
2022-11-27T05:16:21.042Z,91.41
2022-11-27T05:17:20.976Z,91.61
2022-11-27T05:18:20.949Z,91.51
2022-11-27T05:19:20.947Z,91.30
2022-11-27T05:20:20.935Z,91.51
2022-11-27T05:21:20.911Z,91.30
2022-11-27T05:22:21.021Z,91.30
2022-11-27T05:23:20.898Z,91.24
2022-11-27T05:24:20.878Z,91.55
2022-11-27T05:25:20.872Z,91.76
2022-11-27T05:26:20.864Z,91.45
2022-11-27T05:27:20.852Z,91.86
2022-11-27T05:28:26.264Z,91.55
2022-11-27T05:29:21.837Z,91.66
2022-11-27T05:30:20.834Z,91.45
2022-11-27T05:31:20.886Z,92.07
2022-11-27T05:32:20.801Z,92.13
2022-11-27T05:33:20.794Z,91.76
2022-11-27T05:34:20.771Z,91.72
2022-11-27T05:35:20.768Z,91.41
2022-11-27T05:36:20.755Z,91.09
2022-11-27T05:37:20.740Z,91.09
2022-11-27T05:38:20.842Z,91.61
2022-11-27T05:39:20.716Z,91.09
2022-11-27T05:40:20.707Z,91.09
2022-11-27T05:41:20.697Z,91.05
2022-11-27T05:42:20.689Z,90.95
2022-11-27T05:43:20.687Z,90.16
2022-11-27T05:44:20.653Z,90.44
2022-11-27T05:45:20.641Z,90.64
2022-11-27T05:46:20.674Z,89.92
2022-11-27T05:47:20.639Z,90.23
2022-11-27T05:48:20.615Z,89.81
2022-11-27T05:49:20.619Z,89.19
2022-11-27T05:50:20.584Z,89.92
2022-11-27T05:51:20.580Z,90.02
2022-11-27T05:52:20.569Z,89.92
2022-11-27T05:53:20.569Z,89.40
2022-11-27T05:54:20.663Z,89.25
2022-11-27T05:55:20.534Z,88.36
2022-11-27T05:56:20.529Z,88.84
2022-11-27T05:57:20.505Z,88.98
2022-11-27T05:58:20.493Z,89.09
2022-11-27T05:59:20.508Z,88.94
2022-11-27T06:00:20.471Z,88.94
2022-11-27T06:01:20.469Z,88.74
2022-11-27T06:02:25.021Z,88.74
2022-11-27T06:03:21.521Z,88.01
2022-11-27T06:04:20.432Z,88.12
2022-11-27T06:05:20.416Z,88.01
2022-11-27T06:06:20.419Z,88.06
2022-11-27T06:07:20.488Z,88.12
2022-11-27T06:08:20.380Z,87.91
2022-11-27T06:09:20.375Z,87.91
2022-11-27T06:10:20.471Z,88.22
2022-11-27T06:11:20.350Z,88.32
2022-11-27T06:12:20.356Z,88.01
2022-11-27T06:13:20.328Z,87.81
2022-11-27T06:14:20.326Z,87.91
2022-11-27T06:15:20.314Z,87.81
2022-11-27T06:16:20.414Z,87.91
2022-11-27T06:17:20.294Z,87.91
2022-11-27T06:18:20.274Z,88.01
2022-11-27T06:19:20.264Z,87.91
2022-11-27T06:20:20.260Z,87.70
2022-11-27T06:21:20.246Z,87.81
2022-11-27T06:22:20.250Z,87.91
2022-11-27T06:23:20.214Z,87.29
2022-11-27T06:24:20.207Z,87.29
2022-11-27T06:25:20.211Z,87.49
2022-11-27T06:26:20.296Z,87.81
2022-11-27T06:27:20.173Z,87.81
2022-11-27T06:28:20.155Z,87.91
2022-11-27T06:29:20.154Z,87.81
2022-11-27T06:30:20.132Z,87.87
2022-11-27T06:31:20.175Z,87.87
2022-11-27T06:32:20.126Z,87.76
2022-11-27T06:33:20.101Z,87.87
2022-11-27T06:34:20.089Z,87.76
2022-11-27T06:35:20.077Z,87.81
2022-11-27T06:36:20.067Z,87.56
2022-11-27T06:37:20.057Z,87.70
2022-11-27T06:38:20.061Z,87.91
2022-11-27T06:39:20.035Z,87.29
2022-11-27T06:40:20.018Z,87.70
2022-11-27T06:41:20.008Z,88.01
2022-11-27T06:42:20.114Z,87.91
2022-11-27T06:43:19.991Z,87.81
2022-11-27T06:44:19.999Z,87.91
2022-11-27T06:45:19.978Z,87.91
2022-11-27T06:46:20.070Z,87.70
2022-11-27T06:47:19.954Z,87.81
2022-11-27T06:48:19.933Z,88.22
2022-11-27T06:49:19.931Z,88.12
2022-11-27T06:50:19.915Z,88.12
2022-11-27T06:51:19.907Z,87.70
2022-11-27T06:52:19.887Z,88.01
2022-11-27T06:53:19.874Z,88.32
2022-11-27T06:54:19.874Z,88.43
2022-11-27T06:55:19.854Z,88.22
2022-11-27T06:56:19.847Z,87.91
2022-11-27T06:57:19.847Z,88.06
2022-11-27T06:58:19.931Z,88.01
2022-11-27T06:59:19.827Z,88.32
2022-11-27T07:00:19.801Z,88.12
2022-11-27T07:01:19.891Z,88.36
2022-11-27T07:02:19.870Z,88.36
2022-11-27T07:03:19.774Z,88.43
2022-11-27T07:04:19.755Z,88.78
2022-11-27T07:05:19.759Z,89.04
2022-11-27T07:06:19.729Z,88.74
2022-11-27T07:07:19.814Z,88.84
2022-11-27T07:08:19.708Z,88.46
2022-11-27T07:09:19.703Z,89.09
2022-11-27T07:10:19.697Z,88.98
2022-11-27T07:11:19.682Z,89.04
2022-11-27T07:12:19.658Z,88.88
2022-11-27T07:13:19.649Z,88.36
2022-11-27T07:14:19.750Z,88.36
2022-11-27T07:15:19.644Z,89.40
2022-11-27T07:16:19.744Z,88.88
2022-11-27T07:17:19.614Z,89.19
2022-11-27T07:18:19.599Z,89.29
2022-11-27T07:19:20.413Z,89.61
2022-11-27T07:20:19.580Z,89.50
2022-11-27T07:21:19.561Z,89.61
2022-11-27T07:22:19.554Z,89.40
2022-11-27T07:23:19.540Z,89.50
2022-11-27T07:24:19.534Z,90.02
2022-11-27T07:25:19.546Z,89.81
2022-11-27T07:26:19.517Z,89.50
2022-11-27T07:27:19.497Z,89.61
2022-11-27T07:28:19.511Z,89.19
2022-11-27T07:29:19.481Z,88.98
2022-11-27T07:30:19.596Z,88.98
2022-11-27T07:31:19.578Z,88.98
2022-11-27T07:32:19.437Z,88.67
2022-11-27T07:33:19.455Z,88.36
2022-11-27T07:34:21.640Z,89.40
2022-11-27T07:35:19.412Z,88.94
2022-11-27T07:36:19.415Z,88.94
2022-11-27T07:37:19.381Z,88.78
2022-11-27T07:38:19.375Z,88.84
2022-11-27T07:39:33.784Z,88.74
2022-11-27T07:40:21.272Z,89.09
2022-11-27T07:41:19.351Z,88.84
2022-11-27T07:43:20.319Z,88.94
2022-11-27T07:44:19.301Z,88.53
2022-11-27T07:45:19.322Z,88.57
2022-11-27T07:46:19.592Z,88.53
2022-11-27T07:47:19.292Z,88.64
2022-11-27T07:48:19.254Z,88.88
2022-11-27T07:49:19.247Z,89.09
2022-11-27T07:50:19.257Z,89.04
2022-11-27T07:51:19.245Z,89.04
2022-11-27T07:52:19.221Z,88.64
2022-11-27T07:53:19.202Z,88.57
2022-11-27T07:54:19.186Z,88.53
2022-11-27T07:55:19.181Z,88.53
2022-11-27T07:56:19.173Z,88.32
2022-11-27T07:57:19.165Z,88.01
2022-11-27T07:58:19.168Z,88.36
2022-11-27T07:59:19.133Z,88.46
2022-11-27T08:00:19.118Z,88.53
2022-11-27T08:01:19.193Z,88.57
2022-11-27T08:02:19.224Z,88.53
2022-11-27T08:03:19.091Z,88.57
2022-11-27T08:04:19.156Z,88.57
2022-11-27T08:05:19.185Z,88.74
2022-11-27T08:06:19.060Z,89.04
2022-11-27T08:07:19.154Z,88.74
2022-11-27T08:08:19.031Z,88.84
2022-11-27T08:09:19.021Z,88.88
2022-11-27T08:10:19.008Z,88.84
2022-11-27T08:11:19.000Z,88.98
2022-11-27T08:12:19.002Z,88.88
2022-11-27T08:13:18.983Z,88.84
2022-11-27T08:14:18.959Z,88.43
2022-11-27T08:15:18.961Z,88.43
2022-11-27T08:16:19.046Z,88.84
2022-11-27T08:17:18.927Z,89.04
2022-11-27T08:18:19.047Z,89.04
2022-11-27T08:19:18.914Z,88.94
2022-11-27T08:20:18.899Z,88.59
2022-11-27T08:21:18.883Z,88.18
2022-11-27T08:22:18.868Z,88.01
2022-11-27T08:23:18.863Z,88.01
2022-11-27T08:24:18.855Z,88.07
2022-11-27T08:25:18.852Z,87.73
2022-11-27T08:26:18.835Z,87.99
2022-11-27T08:27:18.812Z,87.34
2022-11-27T08:28:18.802Z,86.26
2022-11-27T08:29:18.798Z,85.50
2022-11-27T08:30:18.780Z,84.67
2022-11-27T08:31:18.892Z,84.30
2022-11-27T08:32:18.766Z,84.44
2022-11-27T08:33:18.744Z,85.37
2022-11-27T08:34:18.861Z,84.89
2022-11-27T08:35:18.721Z,85.41
2022-11-27T08:36:18.761Z,85.62
2022-11-27T08:37:18.709Z,86.96
2022-11-27T08:38:18.690Z,86.65
2022-11-27T08:39:18.686Z,86.44
2022-11-27T08:40:18.667Z,86.96
2022-11-27T08:41:18.654Z,87.17
2022-11-27T08:42:18.648Z,87.17
2022-11-27T08:43:18.652Z,87.27
2022-11-27T08:44:18.630Z,86.96
2022-11-27T08:45:18.617Z,87.48
2022-11-27T08:46:18.761Z,87.37
2022-11-27T08:47:18.582Z,87.34
2022-11-27T08:48:18.578Z,86.71
2022-11-27T08:49:18.591Z,86.30
2022-11-27T08:50:18.671Z,86.71
2022-11-27T08:51:18.541Z,87.13
2022-11-27T08:52:18.531Z,87.13
2022-11-27T08:53:18.524Z,86.78
2022-11-27T08:54:18.531Z,86.78
2022-11-27T08:55:18.518Z,86.05
2022-11-27T08:56:18.514Z,85.95
2022-11-27T08:57:18.470Z,85.64
2022-11-27T08:58:18.464Z,85.50
2022-11-27T08:59:18.457Z,85.30
2022-11-27T09:00:20.518Z,85.50
2022-11-27T09:01:19.517Z,85.60
2022-11-27T09:02:18.436Z,85.50
2022-11-27T09:03:18.404Z,85.19
2022-11-27T09:04:18.481Z,84.88
2022-11-27T09:05:18.409Z,84.99
2022-11-27T09:06:18.488Z,84.99
2022-11-27T09:07:18.400Z,84.16
2022-11-27T09:08:18.352Z,83.95
2022-11-27T09:09:18.340Z,83.61
2022-11-27T09:10:18.348Z,83.29
2022-11-27T09:11:18.313Z,82.98
2022-11-27T09:12:18.311Z,83.71
2022-11-27T09:13:18.310Z,83.19
2022-11-27T09:14:18.283Z,82.98
2022-11-27T09:15:18.274Z,83.61
2022-11-27T09:16:18.380Z,83.09
2022-11-27T09:17:18.272Z,82.47
2022-11-27T09:18:18.241Z,82.57
2022-11-27T09:19:18.227Z,82.37
2022-11-27T09:20:18.227Z,82.37
2022-11-27T09:21:18.200Z,83.15
2022-11-27T09:22:18.311Z,82.37
2022-11-27T09:23:18.175Z,82.16
2022-11-27T09:24:18.173Z,82.12
2022-11-27T09:25:18.162Z,82.26
2022-11-27T09:26:18.150Z,81.65
2022-11-27T09:27:18.133Z,81.85
2022-11-27T09:28:18.126Z,81.92
2022-11-27T09:29:18.107Z,81.51
2022-11-27T09:30:18.115Z,81.30
2022-11-27T09:31:18.100Z,81.20
2022-11-27T09:32:18.164Z,81.40
2022-11-27T09:33:18.063Z,81.40
2022-11-27T09:34:18.055Z,80.89
2022-11-27T09:35:18.250Z,81.61
2022-11-27T09:36:18.031Z,81.61
2022-11-27T09:37:18.019Z,81.09
2022-11-27T09:38:18.126Z,81.09
2022-11-27T09:39:18.017Z,80.89
2022-11-27T09:40:18.019Z,81.40
2022-11-27T09:41:17.971Z,81.71
2022-11-27T09:42:17.961Z,81.26
2022-11-27T09:43:17.949Z,81.20
2022-11-27T09:44:17.954Z,81.20
2022-11-27T09:45:17.979Z,81.40
2022-11-27T09:46:18.016Z,81.20
2022-11-27T09:47:17.903Z,81.40
2022-11-27T09:48:17.896Z,80.58
2022-11-27T09:49:17.884Z,80.89
2022-11-27T09:50:17.882Z,80.58
2022-11-27T09:51:17.894Z,80.89
2022-11-27T09:52:17.884Z,80.99
2022-11-27T09:53:17.841Z,80.65
2022-11-27T09:54:17.943Z,80.13
2022-11-27T09:55:17.817Z,80.75
2022-11-27T09:56:17.814Z,80.95
2022-11-27T09:57:17.794Z,80.95
2022-11-27T09:58:17.791Z,81.77
2022-11-27T09:59:17.770Z,82.54
2022-11-27T10:00:17.760Z,82.95
2022-11-27T10:01:17.835Z,83.05
2022-11-27T10:02:17.911Z,83.67
2022-11-27T10:03:17.854Z,83.15
2022-11-27T10:04:17.727Z,84.08
2022-11-27T10:05:18.259Z,84.70
2022-11-27T10:06:17.690Z,84.19
2022-11-27T10:07:17.726Z,85.01
2022-11-27T10:08:17.673Z,84.80
2022-11-27T10:09:17.658Z,84.64
2022-11-27T10:10:17.765Z,85.36
2022-11-27T10:11:17.633Z,85.36
2022-11-27T10:12:17.633Z,85.36
2022-11-27T10:13:17.613Z,85.46
2022-11-27T10:14:17.603Z,85.05
2022-11-27T10:15:17.587Z,85.57
2022-11-27T10:16:17.635Z,85.71
2022-11-27T10:17:17.605Z,85.77
2022-11-27T10:18:17.565Z,85.97
2022-11-27T10:19:17.542Z,86.29
2022-11-27T10:20:17.535Z,86.80
2022-11-27T10:21:17.520Z,86.60
2022-11-27T10:22:20.935Z,86.63
2022-11-27T10:23:17.529Z,86.63
2022-11-27T10:24:17.499Z,86.74
2022-11-27T10:25:17.514Z,86.70
2022-11-27T10:26:17.590Z,85.81
2022-11-27T10:27:17.468Z,86.63
2022-11-27T10:28:17.455Z,86.53
2022-11-27T10:29:17.451Z,86.80
2022-11-27T10:30:17.422Z,87.11
2022-11-27T10:31:17.435Z,86.29
2022-11-27T10:32:46.773Z,86.29
2022-11-27T10:33:18.413Z,86.08
2022-11-27T10:34:17.380Z,86.12
2022-11-27T10:35:17.365Z,86.29
2022-11-27T10:36:17.356Z,87.01
2022-11-27T10:37:17.338Z,86.90
2022-11-27T10:38:17.336Z,87.32
2022-11-27T10:39:17.326Z,87.32
2022-11-27T10:40:17.315Z,87.21
2022-11-27T10:41:47.702Z,87.42
2022-11-27T10:42:18.397Z,87.01
2022-11-27T10:43:17.269Z,86.29
2022-11-27T10:44:17.281Z,86.60
2022-11-27T10:45:17.250Z,86.29
2022-11-27T10:46:17.399Z,86.29
2022-11-27T10:47:17.259Z,86.39
2022-11-27T10:48:17.221Z,86.80
2022-11-27T10:49:17.202Z,86.49
2022-11-27T10:50:17.204Z,86.60
2022-11-27T10:51:17.182Z,87.01
2022-11-27T10:52:17.176Z,87.27
2022-11-27T10:53:17.156Z,87.32
2022-11-27T10:54:17.153Z,87.21
2022-11-27T10:55:17.184Z,85.97
2022-11-27T10:56:17.127Z,86.29
2022-11-27T10:57:17.116Z,86.24
2022-11-27T10:58:17.219Z,86.66
2022-11-27T10:59:17.137Z,86.66
2022-11-27T11:00:17.100Z,86.24
2022-11-27T11:01:17.100Z,86.35
2022-11-27T11:02:17.120Z,86.24
2022-11-27T11:03:17.065Z,86.55
2022-11-27T11:04:37.085Z,86.66
2022-11-27T11:05:37.245Z,86.24
2022-11-27T11:06:21.309Z,86.24
2022-11-27T11:07:17.034Z,86.66
2022-11-27T11:08:17.020Z,86.55
2022-11-27T11:09:17.006Z,86.35
2022-11-27T11:10:16.988Z,87.07
2022-11-27T11:11:16.951Z,86.76
2022-11-27T11:12:16.943Z,86.97
2022-11-27T11:13:16.963Z,87.38
2022-11-27T11:14:17.050Z,87.38
2022-11-27T11:15:16.919Z,86.97
2022-11-27T11:16:20.561Z,87.48
2022-11-27T11:17:18.030Z,88.06
2022-11-27T11:18:16.875Z,87.69
2022-11-27T11:19:16.867Z,87.79
2022-11-27T11:20:16.865Z,87.96
2022-11-27T11:21:16.856Z,87.99
2022-11-27T11:22:16.838Z,88.41
2022-11-27T11:23:16.819Z,87.69
2022-11-27T11:24:16.810Z,87.69
2022-11-27T11:25:16.795Z,87.48
2022-11-27T11:26:16.825Z,87.59
2022-11-27T11:27:16.775Z,88.10
2022-11-27T11:28:16.782Z,88.62
2022-11-27T11:29:16.756Z,88.62
2022-11-27T11:30:16.903Z,88.72
2022-11-27T11:31:16.749Z,87.99
2022-11-27T11:32:16.848Z,88.78
2022-11-27T11:33:16.715Z,88.82
2022-11-27T11:34:16.690Z,89.03
2022-11-27T11:35:16.685Z,89.65
2022-11-27T11:36:16.700Z,89.44
2022-11-27T11:37:16.674Z,89.34
2022-11-27T11:38:16.655Z,89.19
2022-11-27T11:39:16.646Z,89.71
2022-11-27T11:40:16.791Z,89.19
2022-11-27T11:41:16.622Z,89.85
2022-11-27T11:42:16.618Z,89.34
2022-11-27T11:43:16.597Z,89.23
2022-11-27T11:44:16.601Z,89.23
2022-11-27T11:45:16.574Z,89.44
2022-11-27T11:46:16.771Z,89.34
2022-11-27T11:47:16.558Z,89.34
2022-11-27T11:48:16.540Z,89.54
2022-11-27T11:49:16.538Z,89.44
2022-11-27T11:50:16.548Z,89.13
2022-11-27T11:51:16.508Z,88.51
2022-11-27T11:52:16.499Z,89.34
2022-11-27T11:53:16.494Z,89.03
2022-11-27T11:54:16.475Z,89.54
2022-11-27T11:55:16.474Z,89.54
2022-11-27T11:56:16.463Z,89.44
2022-11-27T11:57:16.440Z,89.54
2022-11-27T11:58:16.452Z,90.01
2022-11-27T11:59:16.419Z,89.95
2022-11-27T12:00:16.425Z,90.16
2022-11-27T12:01:26.973Z,90.26
2022-11-27T12:02:17.557Z,90.06
2022-11-27T12:03:16.377Z,89.85
2022-11-27T12:04:16.413Z,90.06
2022-11-27T12:05:16.354Z,90.26
2022-11-27T12:06:16.349Z,90.16
2022-11-27T12:07:16.425Z,90.26
2022-11-27T12:08:16.316Z,90.67
2022-11-27T12:09:16.335Z,91.30
2022-11-27T12:10:16.320Z,91.09
2022-11-27T12:11:16.322Z,90.88
2022-11-27T12:12:16.269Z,90.88
2022-11-27T12:13:16.260Z,91.19
2022-11-27T12:14:23.338Z,90.47
2022-11-27T12:15:16.232Z,90.26
2022-11-27T12:16:16.255Z,89.95
2022-11-27T12:17:16.229Z,90.37
2022-11-27T12:18:16.320Z,90.26
2022-11-27T12:19:16.195Z,90.57
2022-11-27T12:20:16.190Z,90.99
2022-11-27T12:21:16.172Z,90.47
2022-11-27T12:22:16.157Z,90.78
2022-11-27T12:23:16.150Z,90.78
2022-11-27T12:24:16.145Z,91.09
2022-11-27T12:25:16.135Z,91.19
2022-11-27T12:26:16.110Z,90.88
2022-11-27T12:27:16.101Z,90.78
2022-11-27T12:28:16.094Z,90.99
2022-11-27T12:29:16.082Z,90.99
2022-11-27T12:30:16.075Z,90.94
2022-11-27T12:31:16.108Z,91.09
2022-11-27T12:32:16.044Z,90.57
2022-11-27T12:33:16.035Z,90.88
2022-11-27T12:34:16.144Z,91.09
2022-11-27T12:35:16.019Z,91.09
2022-11-27T12:36:16.002Z,90.78
2022-11-27T12:37:15.992Z,91.30
2022-11-27T12:38:15.976Z,91.30
2022-11-27T12:39:15.967Z,91.50
2022-11-27T12:40:15.983Z,91.30
2022-11-27T12:41:15.945Z,91.40
2022-11-27T12:42:21.618Z,91.19
2022-11-27T12:43:16.963Z,91.09
2022-11-27T12:44:15.918Z,91.60
2022-11-27T12:45:15.912Z,91.30
2022-11-27T12:46:15.930Z,90.99
2022-11-27T12:47:15.884Z,91.30
2022-11-27T12:48:15.869Z,91.19
2022-11-27T12:49:15.859Z,91.50
2022-11-27T12:50:20.877Z,91.56
2022-11-27T12:51:22.508Z,91.97
2022-11-27T12:52:16.942Z,92.18
2022-11-27T12:53:18.906Z,92.18